Time;durP1;ratioP1;P1;durP2;ratioP2;P2;SDS_P1;SDS_P2;PMS_P1;PMS_P2;Temp;Humidity;BMP_temperature;BMP_pressure;BME280_temperature;BME280_humidity;BME280_pressure;Samples;Min_cycle;Max_cycle;Signal;HPM_P1;HPM_P2
2022/06/12 00:01:26;;;;;;;8.25;1.50;;;;;;;;;;5325060;28;20381;-72
2022/06/12 00:03:57;;;;;;;7.90;1.92;;;;;;;;;;5325529;28;20026;-71
2022/06/12 00:06:28;;;;;;;8.55;1.90;;;;;;;;;;5324313;28;20015;-71
2022/06/12 00:08:59;;;;;;;9.75;2.45;;;;;;;;;;5325657;28;20058;-71
2022/06/12 00:11:33;;;;;;;12.23;3.47;;;;;;;;;;5324777;28;20024;-71
2022/06/12 00:14:04;;;;;;;7.47;2.33;;;;;;;;;;5324303;28;20264;-72
2022/06/12 00:16:36;;;;;;;9.20;2.72;;;;;;;;;;5324897;28;20011;-72
2022/06/12 00:19:08;;;;;;;9.43;1.77;;;;;;;;;;5324843;28;20050;-72
2022/06/12 00:21:39;;;;;;;11.57;2.00;;;;;;;;;;5324137;28;20023;-71
2022/06/12 00:24:12;;;;;;;9.75;2.58;;;;;;;;;;5324828;28;20047;-71
2022/06/12 00:26:46;;;;;;;11.23;2.28;;;;;;;;;;5324133;28;20015;-72
2022/06/12 00:29:28;;;;;;;8.27;1.60;;;;;;;;;;5324498;28;20035;-72
2022/06/12 00:32:01;;;;;;;8.63;1.63;;;;;;;;;;5324956;28;20069;-72
2022/06/12 00:34:34;;;;;;;9.40;1.63;;;;;;;;;;5323800;28;20016;-72
2022/06/12 00:37:05;;;;;;;10.23;1.90;;;;;;;;;;5324524;28;20041;-71
2022/06/12 00:39:37;;;;;;;10.90;2.05;;;;;;;;;;5324353;28;20019;-72
2022/06/12 00:42:16;;;;;;;9.00;1.65;;;;;;;;;;5323798;28;20458;-72
2022/06/12 00:44:48;;;;;;;10.40;2.17;;;;;;;;;;5324533;28;20016;-71
2022/06/12 00:47:19;;;;;;;8.27;2.58;;;;;;;;;;5324198;28;20524;-72
2022/06/12 00:49:54;;;;;;;10.05;2.55;;;;;;;;;;5323797;28;20031;-72
2022/06/12 00:52:36;;;;;;;6.85;1.67;;;;;;;;;;5324358;28;20102;-72
2022/06/12 00:55:28;;;;;;;9.43;1.90;;;;;;;;;;5323508;28;20016;-72
2022/06/12 00:58:02;;;;;;;10.55;2.13;;;;;;;;;;5323414;28;20055;-71
2022/06/12 01:00:34;;;;;;;13.07;2.40;;;;;;;;;;5323954;28;20098;-72
2022/06/12 01:03:05;;;;;;;9.73;1.83;;;;;;;;;;5323534;28;20526;-71
2022/06/12 01:08:28;;;;;;;8.32;1.67;;;;;;;;;;5323807;28;20032;-71
2022/06/12 01:11:04;;;;;;;13.00;2.30;;;;;;;;;;5323752;28;20459;-71
2022/06/12 01:13:37;;;;;;;6.38;1.50;;;;;;;;;;5323838;28;20016;-71
2022/06/12 01:16:14;;;;;;;8.85;1.67;;;;;;;;;;5323145;28;20046;-71
2022/06/12 01:18:48;;;;;;;7.60;1.80;;;;;;;;;;5323856;28;20047;-72
2022/06/12 01:21:19;;;;;;;11.40;1.70;;;;;;;;;;5323421;28;20022;-71
2022/06/12 01:24:19;;;;;;;9.70;2.20;;;;;;;;;;5323206;28;20102;-71
2022/06/12 01:27:00;;;;;;;7.57;1.90;;;;;;;;;;5302463;28;20733;-71
2022/06/12 01:29:46;;;;;;;12.77;1.92;;;;;;;;;;5323314;28;20040;-71
2022/06/12 01:32:25;;;;;;;10.30;2.20;;;;;;;;;;5322800;28;20065;-71
2022/06/12 01:35:08;;;;;;;12.65;2.05;;;;;;;;;;5324201;28;20020;-71
2022/06/12 01:37:52;;;;;;;9.73;1.73;;;;;;;;;;5322871;28;20088;-71
2022/06/12 01:40:26;;;;;;;10.50;1.65;;;;;;;;;;5323460;28;20023;-71
2022/06/12 01:42:57;;;;;;;11.77;1.75;;;;;;;;;;5324061;28;20020;-71
2022/06/12 01:45:28;;;;;;;9.27;1.92;;;;;;;;;;5322522;28;20060;-71
2022/06/12 01:48:00;;;;;;;10.63;1.45;;;;;;;;;;5323687;28;20312;-71
2022/06/12 01:50:31;;;;;;;9.73;2.45;;;;;;;;;;5323802;28;20111;-71
2022/06/12 01:53:05;;;;;;;5.63;1.45;;;;;;;;;;5322851;28;20069;-72
2022/06/12 01:55:45;;;;;;;7.15;1.40;;;;;;;;;;5323507;28;20522;-72
2022/06/12 01:58:29;;;;;;;16.25;2.60;;;;;;;;;;5322384;28;20081;-71
2022/06/12 02:01:05;;;;;;;10.85;1.50;;;;;;;;;;5323522;28;20023;-71
2022/06/12 02:03:43;;;;;;;9.85;2.03;;;;;;;;;;5323864;28;20011;-71
2022/06/12 02:06:17;;;;;;;7.47;1.45;;;;;;;;;;5322461;28;20119;-72
2022/06/12 02:08:48;;;;;;;11.88;1.60;;;;;;;;;;5323945;28;20097;-71
2022/06/12 02:14:24;;;;;;;11.48;1.85;;;;;;;;;;5326644;28;20250;-71
2022/06/12 02:16:57;;;;;;;9.13;1.50;;;;;;;;;;5327834;28;20019;-71
2022/06/12 02:19:31;;;;;;;10.20;1.95;;;;;;;;;;5326099;28;20093;-71
2022/06/12 02:22:02;;;;;;;11.88;1.83;;;;;;;;;;5327710;28;20347;-71
2022/06/12 02:24:42;;;;;;;13.35;1.92;;;;;;;;;;5327285;28;20093;-71
2022/06/12 02:27:16;;;;;;;8.43;1.65;;;;;;;;;;5326535;28;20065;-71
2022/06/12 02:29:50;;;;;;;12.63;2.22;;;;;;;;;;5327119;28;20485;-72
2022/06/12 02:32:21;;;;;;;9.10;2.05;;;;;;;;;;5326857;28;20051;-72
2022/06/12 02:35:01;;;;;;;10.30;2.08;;;;;;;;;;5326853;28;20063;-71
2022/06/12 02:37:35;;;;;;;10.55;2.30;;;;;;;;;;5326894;28;20266;-72
2022/06/12 02:40:10;;;;;;;9.85;2.33;;;;;;;;;;5326797;28;20015;-72
2022/06/12 02:42:43;;;;;;;9.88;1.70;;;;;;;;;;5326032;28;20012;-72
2022/06/12 02:45:28;;;;;;;12.50;3.00;;;;;;;;;;5326753;28;20020;-72
2022/06/12 02:48:00;;;;;;;9.70;1.70;;;;;;;;;;5326406;28;20027;-72
2022/06/12 02:50:34;;;;;;;10.93;1.80;;;;;;;;;;5326704;28;20091;-72
2022/06/12 02:53:07;;;;;;;8.90;2.03;;;;;;;;;;5326719;28;20020;-72
2022/06/12 02:56:17;;;;;;;11.43;1.38;;;;;;;;;;5326005;28;20027;-72
2022/06/12 02:59:12;;;;;;;8.88;1.80;;;;;;;;;;5219378;28;20026;-72
2022/06/12 03:01:50;;;;;;;10.77;2.08;;;;;;;;;;5218940;28;20037;-72
2022/06/12 03:04:29;;;;;;;10.07;1.63;;;;;;;;;;5300117;28;20109;-72
2022/06/12 03:07:00;;;;;;;;;;;;;;;;;;5326983;28;20022;-72
2022/06/12 03:09:31;;;;;;;8.15;1.88;;;;;;;;;;5325221;28;20354;-72
2022/06/12 03:12:03;;;;;;;10.80;2.13;;;;;;;;;;5326258;28;20043;-72
2022/06/12 03:14:35;;;;;;;13.27;1.95;;;;;;;;;;5325949;28;20389;-73
2022/06/12 03:17:06;;;;;;;8.40;2.30;;;;;;;;;;5325484;28;20015;-71
2022/06/12 03:19:45;;;;;;;10.15;2.83;;;;;;;;;;5325843;28;20347;-70
2022/06/12 03:22:50;;;;;;;9.98;1.50;;;;;;;;;;5325235;28;20170;-71
2022/06/12 03:25:24;;;;;;;18.92;2.85;;;;;;;;;;5269484;28;20379;-70
2022/06/12 03:28:02;;;;;;;10.68;2.38;;;;;;;;;;5326105;28;20427;-71
2022/06/12 03:30:46;;;;;;;13.45;2.13;;;;;;;;;;5325253;28;20016;-71
2022/06/12 03:33:26;;;;;;;14.50;3.13;;;;;;;;;;5326070;28;20035;-71
2022/06/12 03:36:14;;;;;;;10.60;2.17;;;;;;;;;;5326187;28;20023;-71
2022/06/12 03:38:48;;;;;;;10.73;2.45;;;;;;;;;;5325267;28;20023;-70
2022/06/12 03:41:21;;;;;;;8.07;2.25;;;;;;;;;;5325542;28;20132;-71
2022/06/12 03:43:55;;;;;;;6.55;2.00;;;;;;;;;;5325397;28;20020;-71
2022/06/12 03:46:32;;;;;;;7.95;2.45;;;;;;;;;;5325490;28;20528;-71
2022/06/12 03:49:03;;;;;;;11.10;3.03;;;;;;;;;;5325671;28;20088;-71
2022/06/12 03:51:52;;;;;;;9.30;3.10;;;;;;;;;;5324864;28;20015;-71
2022/06/12 03:54:23;;;;;;;13.30;2.35;;;;;;;;;;5324966;28;20023;-71
2022/06/12 03:59:53;;;;;;;14.20;2.40;;;;;;;;;;5324960;28;20337;-71
2022/06/12 04:02:26;;;;;;;6.22;2.13;;;;;;;;;;5325202;28;20016;-71
2022/06/12 04:04:57;;;;;;;10.43;2.30;;;;;;;;;;5324826;28;20016;-71
2022/06/12 04:07:29;;;;;;;7.32;2.38;;;;;;;;;;5324887;28;20359;-71
2022/06/12 04:10:02;;;;;;;9.00;2.15;;;;;;;;;;5325240;28;20027;-71
2022/06/12 04:12:34;;;;;;;12.70;3.00;;;;;;;;;;5324505;28;20343;-71
2022/06/12 04:15:12;;;;;;;7.35;2.22;;;;;;;;;;5325167;28;20069;-71
2022/06/12 04:17:44;;;;;;;7.13;2.00;;;;;;;;;;5324955;28;20038;-71
2022/06/12 04:20:17;;;;;;;11.13;2.60;;;;;;;;;;5324080;28;20402;-71
2022/06/12 04:22:53;;;;;;;6.25;2.13;;;;;;;;;;5325366;28;20027;-71
2022/06/12 04:25:32;;;;;;;8.52;2.33;;;;;;;;;;5324834;28;20462;-71
2022/06/12 04:28:05;;;;;;;7.93;2.13;;;;;;;;;;5323944;28;20031;-71
2022/06/12 04:30:38;;;;;;;12.73;2.30;;;;;;;;;;5324708;28;20099;-71
2022/06/12 04:33:18;;;;;;;8.98;2.17;;;;;;;;;;5323950;28;20375;-71
2022/06/12 04:35:52;;;;;;;8.00;1.65;;;;;;;;;;5324964;28;20023;-71
2022/06/12 04:38:24;;;;;;;9.02;1.85;;;;;;;;;;5324374;28;20454;-71
2022/06/12 04:40:55;;;;;;;10.45;1.75;;;;;;;;;;5323903;28;20023;-71
2022/06/12 04:43:28;;;;;;;7.40;1.67;;;;;;;;;;5324282;28;20019;-71
2022/06/12 04:45:59;;;;;;;14.70;2.22;;;;;;;;;;5324898;28;20492;-71
2022/06/12 04:48:35;;;;;;;8.45;2.33;;;;;;;;;;5323294;28;20059;-71
2022/06/12 04:51:07;;;;;;;11.63;1.73;;;;;;;;;;5324409;28;20469;-71
2022/06/12 04:53:38;;;;;;;8.18;2.08;;;;;;;;;;5324101;27;20051;-71
2022/06/12 04:56:11;;;;;;;11.40;2.05;;;;;;;;;;5323721;28;20080;-71
2022/06/12 04:58:42;;;;;;;8.57;2.42;;;;;;;;;;5324158;28;20416;-71
2022/06/12 05:01:14;;;;;;;7.53;1.48;;;;;;;;;;5323470;28;20144;-71
2022/06/12 05:03:45;;;;;;;7.03;2.08;;;;;;;;;;5324201;28;20024;-70
2022/06/12 05:06:16;;;;;;;11.32;2.22;;;;;;;;;;5324062;28;20104;-71
2022/06/12 05:08:48;;;;;;;9.00;1.95;;;;;;;;;;5323147;28;20539;-71
2022/06/12 05:11:19;;;;;;;9.13;1.42;;;;;;;;;;5323727;28;20076;-71
2022/06/12 05:13:51;;;;;;;11.30;2.35;;;;;;;;;;5324199;28;20034;-70
2022/06/12 05:16:28;;;;;;;8.65;1.50;;;;;;;;;;5322746;28;20020;-71
2022/06/12 05:19:00;;;;;;;8.70;2.20;;;;;;;;;;5324128;28;20371;-70
2022/06/12 05:21:32;;;;;;;13.07;2.30;;;;;;;;;;5323728;28;20024;-71
2022/06/12 05:24:03;;;;;;;9.98;2.08;;;;;;;;;;5323192;28;20019;-71
2022/06/12 05:26:35;;;;;;;12.65;2.13;;;;;;;;;;5323495;28;20421;-71
2022/06/12 05:29:08;;;;;;;10.15;1.70;;;;;;;;;;5323595;28;20058;-71
2022/06/12 05:31:39;;;;;;;11.80;2.42;;;;;;;;;;5323299;28;20019;-71
2022/06/12 05:34:11;;;;;;;8.63;2.13;;;;;;;;;;5323569;28;20535;-71
2022/06/12 05:36:43;;;;;;;11.93;2.38;;;;;;;;;;5322935;28;20043;-71
2022/06/12 05:39:14;;;;;;;11.57;1.85;;;;;;;;;;5323567;28;20084;-72
2022/06/12 05:41:46;;;;;;;9.55;2.28;;;;;;;;;;5323781;28;20015;-72
2022/06/12 05:44:17;;;;;;;9.95;1.60;;;;;;;;;;5322318;28;20037;-72
2022/06/12 05:46:48;;;;;;;13.18;2.50;;;;;;;;;;5323660;28;20017;-72
2022/06/12 05:49:19;;;;;;;11.37;2.40;;;;;;;;;;5323355;28;20036;-73
2022/06/12 05:51:51;;;;;;;12.82;2.33;;;;;;;;;;5322997;28;20306;-72
2022/06/12 05:54:22;;;;;;;12.93;2.53;;;;;;;;;;5323176;28;20066;-72
2022/06/12 05:56:53;;;;;;;12.10;2.87;;;;;;;;;;5323921;28;20385;-72
2022/06/12 05:59:24;;;;;;;11.85;3.35;;;;;;;;;;5322186;28;20281;-72
2022/06/12 06:01:55;;;;;;;13.73;2.67;;;;;;;;;;5323751;28;20370;-72
2022/06/12 06:04:27;;;;;;;16.27;2.83;;;;;;;;;;5322328;28;20026;-72
2022/06/12 06:06:59;;;;;;;18.10;3.53;;;;;;;;;;5323842;28;20012;-72
2022/06/12 06:09:30;;;;;;;17.52;2.53;;;;;;;;;;5323061;28;20032;-72
2022/06/12 06:12:01;;;;;;;14.15;3.13;;;;;;;;;;5322742;28;20015;-73
2022/06/12 06:14:33;;;;;;;14.68;2.88;;;;;;;;;;5323170;28;20084;-72
2022/06/12 06:17:04;;;;;;;17.60;2.77;;;;;;;;;;5323630;28;20107;-72
2022/06/12 06:19:35;;;;;;;16.77;2.90;;;;;;;;;;5322320;28;20289;-72
2022/06/12 06:22:06;;;;;;;21.73;3.13;;;;;;;;;;5323387;28;20088;-72
2022/06/12 06:24:37;;;;;;;18.73;3.15;;;;;;;;;;5323221;28;20031;-72
2022/06/12 06:27:09;;;;;;;13.23;2.57;;;;;;;;;;5322330;28;20019;-73
2022/06/12 06:29:41;;;;;;;19.25;4.50;;;;;;;;;;5323239;28;20292;-72
2022/06/12 06:32:12;;;;;;;19.30;2.90;;;;;;;;;;5323429;28;20023;-72
2022/06/12 06:34:44;;;;;;;17.92;3.33;;;;;;;;;;5322482;28;20030;-72
2022/06/12 06:37:15;;;;;;;15.03;3.00;;;;;;;;;;5323172;28;20095;-72
2022/06/12 06:39:46;;;;;;;24.13;3.80;;;;;;;;;;5322164;28;20280;-72
2022/06/12 06:42:17;;;;;;;17.52;3.20;;;;;;;;;;5323277;28;20289;-72
2022/06/12 06:47:40;;;;;;;17.40;3.88;;;;;;;;;;5322217;28;20540;-72
2022/06/12 06:50:12;;;;;;;19.45;3.90;;;;;;;;;;5322874;28;20024;-72
2022/06/12 06:52:43;;;;;;;18.85;4.15;;;;;;;;;;5322983;28;20024;-71
2022/06/12 06:55:14;;;;;;;16.67;3.63;;;;;;;;;;5322131;28;20016;-70
2022/06/12 06:57:47;;;;;;;18.92;3.15;;;;;;;;;;5326503;28;20016;-71
2022/06/12 07:00:23;;;;;;;21.05;3.55;;;;;;;;;;5326469;28;20084;-71
2022/06/12 07:02:54;;;;;;;15.55;3.35;;;;;;;;;;5325776;28;20024;-71
2022/06/12 07:05:26;;;;;;;16.05;3.08;;;;;;;;;;5326064;28;20448;-72
2022/06/12 07:07:57;;;;;;;16.70;3.33;;;;;;;;;;5325907;28;20900;-70
2022/06/12 07:10:29;;;;;;;17.02;3.65;;;;;;;;;;5326032;28;20458;-71
2022/06/12 07:13:01;;;;;;;18.83;3.65;;;;;;;;;;5326251;28;20020;-71
2022/06/12 07:15:33;;;;;;;14.90;3.58;;;;;;;;;;5325515;28;20527;-71
2022/06/12 07:18:05;;;;;;;16.05;3.83;;;;;;;;;;5326679;28;20027;-70
2022/06/12 07:20:38;;;;;;;15.32;3.92;;;;;;;;;;5325954;28;20047;-71
2022/06/12 07:23:11;;;;;;;21.35;4.55;;;;;;;;;;5325257;28;20016;-71
2022/06/12 07:25:44;;;;;;;19.30;4.13;;;;;;;;;;5325929;28;20019;-72
2022/06/12 07:28:16;;;;;;;16.77;2.92;;;;;;;;;;5325807;28;20050;-72
2022/06/12 07:30:48;;;;;;;13.43;3.35;;;;;;;;;;5325081;28;20024;-73
2022/06/12 07:33:20;;;;;;;18.00;3.88;;;;;;;;;;5325676;28;20026;-73
2022/06/12 07:35:51;;;;;;;14.68;3.25;;;;;;;;;;5325253;28;20016;-71
2022/06/12 07:38:24;;;;;;;18.38;3.88;;;;;;;;;;5325659;28;20031;-72
2022/06/12 07:40:57;;;;;;;18.38;3.70;;;;;;;;;;5325798;28;20028;-72
2022/06/12 07:43:30;;;;;;;16.30;3.47;;;;;;;;;;5324771;28;20395;-71
2022/06/12 07:46:02;;;;;;;17.85;3.05;;;;;;;;;;5325717;28;20030;-71
2022/06/12 07:48:34;;;;;;;14.45;3.47;;;;;;;;;;5325218;28;20040;-71
2022/06/12 07:51:08;;;;;;;16.77;3.30;;;;;;;;;;5324993;28;20034;-71
2022/06/12 07:53:39;;;;;;;17.27;3.53;;;;;;;;;;5325456;28;20011;-72
2022/06/12 07:56:11;;;;;;;18.38;3.03;;;;;;;;;;5325220;28;20069;-71
2022/06/12 07:58:43;;;;;;;14.55;2.75;;;;;;;;;;5324591;28;20019;-73
2022/06/12 08:01:16;;;;;;;16.75;2.78;;;;;;;;;;5325144;28;20469;-71
2022/06/12 08:03:48;;;;;;;15.15;2.85;;;;;;;;;;5325500;28;20026;-72
2022/06/12 08:06:20;;;;;;;15.07;3.17;;;;;;;;;;5323873;28;20019;-73
2022/06/12 08:08:52;;;;;;;19.40;3.30;;;;;;;;;;5325304;28;20035;-71
2022/06/12 08:11:24;;;;;;;16.50;3.60;;;;;;;;;;5323736;28;20466;-71
2022/06/12 08:13:55;;;;;;;16.58;3.00;;;;;;;;;;5325572;28;20455;-71
2022/06/12 08:16:26;;;;;;;12.25;2.90;;;;;;;;;;5324592;28;20014;-71
2022/06/12 08:18:57;;;;;;;16.27;2.63;;;;;;;;;;5324455;28;20437;-71
2022/06/12 08:21:29;;;;;;;12.75;2.35;;;;;;;;;;5324600;28;20016;-71
2022/06/12 08:24:01;;;;;;;14.10;2.90;;;;;;;;;;5324659;28;20129;-71
2022/06/12 08:26:33;;;;;;;12.82;2.83;;;;;;;;;;5323913;28;20027;-71
2022/06/12 08:29:08;;;;;;;13.52;2.25;;;;;;;;;;5324650;28;20106;-71
2022/06/12 08:31:50;;;;;;;15.38;3.03;;;;;;;;;;5324400;28;20028;-71
2022/06/12 08:34:30;;;;;;;15.93;3.58;;;;;;;;;;5323117;28;20015;-71
2022/06/12 08:37:02;;;;;;;12.85;3.08;;;;;;;;;;5324452;28;20058;-71
2022/06/12 08:39:34;;;;;;;14.90;3.00;;;;;;;;;;5323753;28;20061;-71
2022/06/12 08:42:34;;;;;;;14.10;2.78;;;;;;;;;;5324183;28;20012;-71
2022/06/12 08:45:05;;;;;;;15.02;3.13;;;;;;;;;;5233868;28;20028;-71
2022/06/12 08:47:50;;;;;;;13.97;3.30;;;;;;;;;;5323453;28;20100;-71
2022/06/12 08:50:28;;;;;;;10.55;2.58;;;;;;;;;;5323548;28;20282;-71
2022/06/12 08:53:06;;;;;;;10.95;2.35;;;;;;;;;;5324270;28;20016;-71
2022/06/12 08:55:40;;;;;;;10.98;2.55;;;;;;;;;;5323647;28;20375;-72
2022/06/12 08:58:11;;;;;;;8.43;2.05;;;;;;;;;;5324062;28;20015;-71
2022/06/12 09:00:43;;;;;;;7.45;1.40;;;;;;;;;;5323314;28;20023;-71
2022/06/12 09:03:19;;;;;;;13.35;2.35;;;;;;;;;;5324213;28;20020;-71
2022/06/12 09:05:52;;;;;;;9.35;1.58;;;;;;;;;;5324915;28;20019;-71
2022/06/12 09:08:32;;;;;;;7.97;1.30;;;;;;;;;;5323052;28;20466;-72
2022/06/12 09:11:15;;;;;;;13.02;2.67;;;;;;;;;;5324279;28;20012;-71
2022/06/12 09:13:50;;;;;;;9.93;1.95;;;;;;;;;;5323736;28;20093;-71
2022/06/12 09:16:32;;;;;;;11.20;2.05;;;;;;;;;;5322949;28;20020;-72
2022/06/12 09:19:09;;;;;;;8.68;1.88;;;;;;;;;;5323236;28;20047;-71
2022/06/12 09:21:41;;;;;;;8.93;1.53;;;;;;;;;;5323124;28;20016;-71
2022/06/12 09:24:18;;;;;;;8.68;1.63;;;;;;;;;;5323787;28;20376;-70
2022/06/12 09:27:08;;;;;;;7.78;1.73;;;;;;;;;;5323843;28;20022;-70
2022/06/12 09:29:51;;;;;;;8.70;2.15;;;;;;;;;;5323071;28;20478;-71
2022/06/12 09:32:40;;;;;;;7.13;1.25;;;;;;;;;;5323769;28;20039;-70
2022/06/12 09:35:30;;;;;;;8.43;1.48;;;;;;;;;;5323423;28;20059;-70
2022/06/12 09:38:19;;;;;;;6.93;1.45;;;;;;;;;;5323759;28;20028;-71
2022/06/12 09:41:09;;;;;;;6.93;1.98;;;;;;;;;;5323776;28;20114;-71
2022/06/12 09:43:41;;;;;;;13.18;2.50;;;;;;;;;;5322914;28;20023;-70
2022/06/12 09:46:24;;;;;;;8.00;2.17;;;;;;;;;;5323625;28;20018;-70
2022/06/12 09:48:58;;;;;;;11.88;2.28;;;;;;;;;;5324012;28;20285;-69
2022/06/12 09:51:35;;;;;;;8.52;1.65;;;;;;;;;;5322267;28;20026;-73
2022/06/12 09:54:06;;;;;;;9.10;1.52;;;;;;;;;;5323704;28;20016;-71
2022/06/12 09:56:37;;;;;;;9.73;1.63;;;;;;;;;;5322649;28;20520;-71
2022/06/12 09:59:16;;;;;;;9.45;1.67;;;;;;;;;;5323413;28;20012;-71
2022/06/12 10:01:47;;;;;;;;;;;;;;;;;;5323678;28;20027;-71
2022/06/12 10:04:30;;;;;;;8.75;1.67;;;;;;;;;;5322563;28;19904;-71
2022/06/12 10:07:07;;;;;;;8.30;1.40;;;;;;;;;;5323565;28;20489;-70
2022/06/12 10:09:43;;;;;;;6.95;1.27;;;;;;;;;;5323346;28;20110;-71
2022/06/12 10:12:20;;;;;;;7.53;1.33;;;;;;;;;;5322361;28;20020;-69
2022/06/12 10:14:53;;;;;;;8.55;1.67;;;;;;;;;;5323586;28;20016;-69
2022/06/12 10:17:24;;;;;;;9.82;1.90;;;;;;;;;;5322701;28;20020;-71
2022/06/12 10:20:22;;;;;;;7.13;2.05;;;;;;;;;;5322553;28;20407;-68
2022/06/12 10:22:54;;;;;;;7.32;1.27;;;;;;;;;;5318229;28;20023;-68
2022/06/12 10:25:33;;;;;;;10.32;1.45;;;;;;;;;;5321944;28;20016;-68
2022/06/12 10:28:04;;;;;;;10.73;1.20;;;;;;;;;;5323047;28;20110;-68
2022/06/12 10:30:35;;;;;;;8.48;1.77;;;;;;;;;;5324791;28;20095;-69
2022/06/12 10:33:25;;;;;;;10.05;1.58;;;;;;;;;;5326281;28;20035;-70
2022/06/12 10:35:58;;;;;;;10.43;1.63;;;;;;;;;;5327594;28;20506;-68
2022/06/12 10:38:31;;;;;;;8.57;1.63;;;;;;;;;;5326784;28;20024;-69
2022/06/12 10:41:18;;;;;;;7.13;1.20;;;;;;;;;;5326201;28;20027;-69
2022/06/12 10:43:50;;;;;;;7.85;2.10;;;;;;;;;;5326569;28;20055;-69
2022/06/12 10:46:30;;;;;;;8.88;1.70;;;;;;;;;;5325598;28;20020;-67
2022/06/12 10:49:14;;;;;;;9.95;1.63;;;;;;;;;;5327122;28;20034;-68
2022/06/12 10:51:46;;;;;;;6.75;1.30;;;;;;;;;;5326901;28;20020;-69
2022/06/12 10:54:21;;;;;;;9.27;1.58;;;;;;;;;;5326053;28;20027;-69
2022/06/12 10:57:10;;;;;;;5.82;0.93;;;;;;;;;;5327020;28;20032;-69
2022/06/12 10:59:51;;;;;;;10.70;1.98;;;;;;;;;;5326669;28;20027;-69
2022/06/12 11:02:23;;;;;;;7.15;1.63;;;;;;;;;;5325987;28;20015;-69
2022/06/12 11:04:56;;;;;;;7.63;0.98;;;;;;;;;;5327084;28;20068;-71
2022/06/12 11:07:42;;;;;;;7.97;1.05;;;;;;;;;;5325457;28;20031;-70
2022/06/12 11:10:28;;;;;;;6.13;0.77;;;;;;;;;;5326452;28;20035;-71
2022/06/12 11:12:59;;;;;;;8.75;1.50;;;;;;;;;;5326713;28;20038;-71
2022/06/12 11:15:34;;;;;;;6.38;1.27;;;;;;;;;;5324564;28;20019;-71
2022/06/12 11:18:09;;;;;;;8.45;1.20;;;;;;;;;;5326197;28;20122;-71
2022/06/12 11:20:49;;;;;;;7.95;1.25;;;;;;;;;;5326093;28;20085;-71
2022/06/12 11:23:39;;;;;;;7.15;0.93;;;;;;;;;;5325738;28;20015;-71
2022/06/12 11:26:15;;;;;;;9.30;1.80;;;;;;;;;;5325992;28;20047;-71
2022/06/12 11:28:51;;;;;;;8.25;1.10;;;;;;;;;;5325200;28;20358;-71
2022/06/12 11:31:28;;;;;;;7.50;0.93;;;;;;;;;;5325590;28;20024;-71
2022/06/12 11:33:59;;;;;;;7.70;0.98;;;;;;;;;;5326470;28;20520;-71
2022/06/12 11:36:40;;;;;;;10.98;0.85;;;;;;;;;;5325330;28;20011;-71
2022/06/12 11:39:25;;;;;;;4.82;0.88;;;;;;;;;;5325672;28;20023;-72
2022/06/12 11:42:15;;;;;;;7.43;1.15;;;;;;;;;;5324168;28;20023;-71
2022/06/12 11:45:02;;;;;;;8.77;1.15;;;;;;;;;;5325786;28;20027;-72
2022/06/12 11:47:50;;;;;;;4.55;0.70;;;;;;;;;;5325703;28;20084;-72
2022/06/12 11:50:42;;;;;;;7.57;0.98;;;;;;;;;;5324416;28;20032;-72
2022/06/12 11:53:14;;;;;;;5.85;0.73;;;;;;;;;;5325448;28;20374;-72
2022/06/12 11:55:49;;;;;;;5.32;0.70;;;;;;;;;;5325722;28;20414;-72
2022/06/12 11:58:28;;;;;;;5.32;0.88;;;;;;;;;;5324535;28;20595;-72
2022/06/12 12:01:24;;;;;;;4.13;0.75;;;;;;;;;;5326069;28;20367;-72
2022/06/12 12:04:14;;;;;;;6.82;1.00;;;;;;;;;;5324981;28;20028;-73
2022/06/12 12:07:21;;;;;;;10.40;1.23;;;;;;;;;;5325175;28;20107;-72
2022/06/12 12:10:06;;;;;;;5.95;0.60;;;;;;;;;;5218598;28;20033;-72
2022/06/12 12:12:39;;;;;;;8.23;1.15;;;;;;;;;;5317220;28;20555;-72
2022/06/12 12:15:17;;;;;;;7.13;0.68;;;;;;;;;;5324966;28;20032;-72
2022/06/12 12:17:50;;;;;;;6.07;0.75;;;;;;;;;;5324320;28;20018;-71
2022/06/12 12:20:47;;;;;;;8.02;0.90;;;;;;;;;;5324391;28;20059;-73
2022/06/12 12:23:21;;;;;;;5.10;0.70;;;;;;;;;;5319438;28;20066;-73
2022/06/12 12:25:55;;;;;;;6.57;1.13;;;;;;;;;;5324472;28;20012;-72
2022/06/12 12:28:30;;;;;;;4.93;0.82;;;;;;;;;;5324482;28;20496;-74
2022/06/12 12:31:03;;;;;;;5.93;1.00;;;;;;;;;;5324681;28;20065;-73
2022/06/12 12:33:35;;;;;;;8.70;1.02;;;;;;;;;;5323976;28;20023;-73
2022/06/12 12:41:53;;;;;;;6.97;0.85;;;;;;;;;;5324729;28;20024;-72
2022/06/12 12:44:38;;;;;;;7.05;0.98;;;;;;;;;;5324275;28;20484;-72
2022/06/12 12:47:36;;;;;;;6.25;1.02;;;;;;;;;;5323999;28;20044;-72
2022/06/12 12:50:15;;;;;;;9.18;1.00;;;;;;;;;;5319408;28;20044;-71
2022/06/12 12:52:48;;;;;;;5.65;0.98;;;;;;;;;;5323420;28;20435;-71
2022/06/12 12:55:23;;;;;;;7.95;0.85;;;;;;;;;;5323945;28;20102;-71
2022/06/12 12:57:55;;;;;;;5.60;0.80;;;;;;;;;;5324692;28;20015;-73
2022/06/12 13:00:33;;;;;;;5.40;0.70;;;;;;;;;;5323380;28;20382;-71
2022/06/12 13:03:04;;;;;;;;;;;;;;;;;;5323789;28;20100;-70
2022/06/12 13:05:36;;;;;;;6.50;0.90;;;;;;;;;;5324436;28;20348;-72
2022/06/12 13:08:10;;;;;;;6.95;0.70;;;;;;;;;;5323150;28;20050;-72
2022/06/12 13:10:47;;;;;;;8.07;1.00;;;;;;;;;;5324081;28;20020;-71
2022/06/12 13:13:41;;;;;;;6.05;0.60;;;;;;;;;;5323538;28;20047;-70
2022/06/12 13:16:21;;;;;;;6.13;0.55;;;;;;;;;;5310192;28;20035;-71
2022/06/12 13:18:58;;;;;;;5.57;0.63;;;;;;;;;;5322625;28;20307;-70
2022/06/12 13:21:39;;;;;;;11.38;0.95;;;;;;;;;;5321647;28;20035;-70
2022/06/12 13:24:10;;;;;;;5.20;0.70;;;;;;;;;;5322936;28;20051;-70
2022/06/12 13:26:42;;;;;;;4.63;0.57;;;;;;;;;;5323627;28;20238;-70
2022/06/12 13:29:15;;;;;;;6.10;0.80;;;;;;;;;;5322286;28;20073;-70
2022/06/12 13:32:00;;;;;;;9.27;0.75;;;;;;;;;;5323827;28;20015;-70
2022/06/12 13:34:31;;;;;;;4.93;1.17;;;;;;;;;;5322725;28;20482;-70
2022/06/12 13:37:04;;;;;;;4.53;0.80;;;;;;;;;;5323646;28;20058;-71
2022/06/12 13:39:37;;;;;;;6.03;0.60;;;;;;;;;;5323594;28;20035;-70
2022/06/12 13:42:09;;;;;;;6.50;0.60;;;;;;;;;;5322763;28;20386;-70
2022/06/12 13:44:41;;;;;;;4.55;0.60;;;;;;;;;;5323312;28;20027;-70
2022/06/12 13:47:16;;;;;;;7.07;0.70;;;;;;;;;;5323232;28;20020;-70
2022/06/12 13:49:59;;;;;;;3.30;0.50;;;;;;;;;;5322692;28;20427;-70
2022/06/12 13:52:54;;;;;;;4.53;0.60;;;;;;;;;;5316080;28;20076;-70
2022/06/12 13:55:28;;;;;;;5.05;0.52;;;;;;;;;;5343566;28;20023;-70
2022/06/12 13:58:04;;;;;;;3.22;0.50;;;;;;;;;;5344376;28;20476;-70
2022/06/12 14:00:42;;;;;;;4.30;0.88;;;;;;;;;;5344500;28;20526;-70
2022/06/12 14:03:25;;;;;;;5.25;0.70;;;;;;;;;;5343986;28;20111;-70
2022/06/12 14:05:58;;;;;;;5.22;0.63;;;;;;;;;;5348034;27;20046;-71
2022/06/12 14:08:31;;;;;;;5.18;0.60;;;;;;;;;;5348505;27;20120;-70
2022/06/12 14:11:04;;;;;;;5.15;0.60;;;;;;;;;;5348419;27;20426;-70
2022/06/12 14:13:36;;;;;;;3.92;0.50;;;;;;;;;;5348992;27;20019;-70
2022/06/12 14:16:09;;;;;;;4.75;0.70;;;;;;;;;;5348606;27;20015;-71
2022/06/12 14:19:00;;;;;;;4.93;0.47;;;;;;;;;;5348117;27;20051;-70
2022/06/12 14:21:41;;;;;;;5.80;0.52;;;;;;;;;;5348885;27;20062;-70
2022/06/12 14:24:16;;;;;;;7.30;0.60;;;;;;;;;;5347724;27;20011;-71
2022/06/12 14:26:49;;;;;;;5.38;0.85;;;;;;;;;;5348593;27;20027;-71
2022/06/12 14:29:35;;;;;;;4.45;0.43;;;;;;;;;;5348390;27;20123;-71
2022/06/12 14:32:22;;;;;;;4.22;0.40;;;;;;;;;;5347758;27;20111;-71
2022/06/12 14:35:01;;;;;;;5.80;0.60;;;;;;;;;;5348889;27;20033;-71
2022/06/12 14:37:37;;;;;;;3.40;0.40;;;;;;;;;;5348510;27;20011;-71
2022/06/12 14:40:30;;;;;;;3.78;0.47;;;;;;;;;;5347574;27;20023;-72
2022/06/12 14:43:10;;;;;;;5.90;0.40;;;;;;;;;;5348475;27;20105;-73
2022/06/12 14:45:49;;;;;;;3.53;0.40;;;;;;;;;;5347864;27;20031;-72
2022/06/12 14:48:21;;;;;;;4.13;0.50;;;;;;;;;;5348076;27;20031;-72
2022/06/12 14:50:53;;;;;;;6.93;0.40;;;;;;;;;;5348683;27;20500;-73
2022/06/12 14:53:25;;;;;;;3.63;0.45;;;;;;;;;;5346760;27;20034;-72
2022/06/12 14:55:58;;;;;;;5.03;0.43;;;;;;;;;;5348595;27;20015;-71
2022/06/12 14:58:29;;;;;;;3.08;0.50;;;;;;;;;;5348122;27;20587;-72
2022/06/12 15:01:05;;;;;;;6.60;1.43;;;;;;;;;;5347594;27;20110;-73
2022/06/12 15:03:36;;;;;;;3.50;0.50;;;;;;;;;;5348069;27;20276;-69
2022/06/12 15:06:09;;;;;;;5.25;0.40;;;;;;;;;;5347159;27;20382;-71
2022/06/12 15:08:40;;;;;;;4.07;0.57;;;;;;;;;;5348064;27;20030;-71
2022/06/12 15:11:14;;;;;;;3.70;0.60;;;;;;;;;;5347659;27;20011;-72
2022/06/12 15:13:46;;;;;;;3.92;0.77;;;;;;;;;;5346987;27;20023;-71
2022/06/12 15:16:18;;;;;;;4.68;0.68;;;;;;;;;;5346652;27;20028;-72
2022/06/12 15:18:49;;;;;;;5.68;0.40;;;;;;;;;;5347903;27;20053;-71
2022/06/12 15:21:25;;;;;;;4.70;0.60;;;;;;;;;;5347009;27;20042;-72
2022/06/12 15:23:56;;;;;;;2.95;0.50;;;;;;;;;;5348169;27;20583;-71
2022/06/12 15:32:18;;;;;;;3.88;0.57;;;;;;;;;;5347552;27;20439;-71
2022/06/12 15:34:52;;;;;;;4.68;0.75;;;;;;;;;;5347136;27;20060;-71
2022/06/12 15:37:24;;;;;;;4.95;1.52;;;;;;;;;;5346926;27;20411;-71
2022/06/12 15:39:55;;;;;;;5.30;0.70;;;;;;;;;;5348000;27;20015;-71
2022/06/12 15:42:26;;;;;;;4.28;0.57;;;;;;;;;;5346286;27;20046;-69
2022/06/12 15:44:58;;;;;;;5.05;0.40;;;;;;;;;;5347675;27;20019;-71
2022/06/12 15:47:30;;;;;;;5.10;0.57;;;;;;;;;;5346869;27;20429;-70
2022/06/12 15:50:02;;;;;;;4.22;0.60;;;;;;;;;;5346628;27;20122;-70
2022/06/12 15:52:33;;;;;;;3.75;0.50;;;;;;;;;;5347110;27;20007;-71